sensor_id;sensor_type;location;lat;lon;timestamp;pressure;altitude;pressure_sealevel;temperature;humidity
8298;BME280;4187;42.778;23.242;2023-07-20T00:00:06;94966.75;;;21.79;100.00
8298;BME280;4187;42.778;23.242;2023-07-20T00:02:34;94958.78;;;21.73;100.00
8298;BME280;4187;42.778;23.242;2023-07-20T00:05:00;94960.22;;;21.75;100.00
8298;BME280;4187;42.778;23.242;2023-07-20T00:07:27;94984.69;;;21.92;100.00
8298;BME280;4187;42.778;23.242;2023-07-20T00:09:56;94989.75;;;22.00;100.00
8298;BME280;4187;42.778;23.242;2023-07-20T00:12:23;94987.94;;;21.94;100.00
8298;BME280;4187;42.778;23.242;2023-07-20T00:14:50;94976.47;;;21.87;100.00
8298;BME280;4187;42.778;23.242;2023-07-20T00:17:19;94974.97;;;21.91;100.00
8298;BME280;4187;42.778;23.242;2023-07-20T00:19:46;94950.81;;;21.84;100.00
8298;BME280;4187;42.778;23.242;2023-07-20T00:22:13;94981.31;;;21.96;100.00
8298;BME280;4187;42.778;23.242;2023-07-20T00:24:40;94988.94;;;21.99;100.00
8298;BME280;4187;42.778;23.242;2023-07-20T00:27:08;94985.56;;;22.04;100.00
8298;BME280;4187;42.778;23.242;2023-07-20T00:29:35;94994.06;;;22.01;100.00
8298;BME280;4187;42.778;23.242;2023-07-20T00:32:02;94987.94;;;21.94;100.00
8298;BME280;4187;42.778;23.242;2023-07-20T00:34:31;94988.63;;;21.89;100.00
8298;BME280;4187;42.778;23.242;2023-07-20T00:36:58;94972.75;;;21.81;100.00
8298;BME280;4187;42.778;23.242;2023-07-20T00:39:25;94974.38;;;21.82;100.00
8298;BME280;4187;42.778;23.242;2023-07-20T00:41:52;94959.00;;;21.71;100.00
8298;BME280;4187;42.778;23.242;2023-07-20T00:44:20;94970.06;;;21.81;100.00
8298;BME280;4187;42.778;23.242;2023-07-20T00:46:47;94968.19;;;21.82;100.00
8298;BME280;4187;42.778;23.242;2023-07-20T00:49:14;94971.78;;;21.76;100.00
8298;BME280;4187;42.778;23.242;2023-07-20T00:51:41;94967.16;;;21.83;100.00
8298;BME280;4187;42.778;23.242;2023-07-20T00:54:09;94973.94;;;21.85;100.00
8298;BME280;4187;42.778;23.242;2023-07-20T00:56:36;94965.50;;;21.82;100.00
8298;BME280;4187;42.778;23.242;2023-07-20T00:59:03;94966.56;;;21.81;100.00
8298;BME280;4187;42.778;23.242;2023-07-20T01:01:31;94960.94;;;21.82;100.00
8298;BME280;4187;42.778;23.242;2023-07-20T01:03:59;94966.75;;;21.79;100.00
8298;BME280;4187;42.778;23.242;2023-07-20T01:06:30;94954.06;;;21.68;100.00
8298;BME280;4187;42.778;23.242;2023-07-20T01:09:08;94950.19;;;21.64;100.00
8298;BME280;4187;42.778;23.242;2023-07-20T01:11:46;94969.56;;;21.66;100.00
8298;BME280;4187;42.778;23.242;2023-07-20T01:14:16;94960.94;;;21.64;100.00
8298;BME280;4187;42.778;23.242;2023-07-20T01:16:45;94961.38;;;21.61;100.00
8298;BME280;4187;42.778;23.242;2023-07-20T01:19:13;94953.44;;;21.48;100.00
8298;BME280;4187;42.778;23.242;2023-07-20T01:21:48;94952.22;;;21.44;100.00
8298;BME280;4187;42.778;23.242;2023-07-20T01:24:53;94964.56;;;21.52;100.00
8298;BME280;4187;42.778;23.242;2023-07-20T01:27:40;94917.94;;;21.21;100.00
8298;BME280;4187;42.778;23.242;2023-07-20T01:30:43;94957.13;;;21.47;100.00
8298;BME280;4187;42.778;23.242;2023-07-20T01:33:17;94963.78;;;21.44;100.00
8298;BME280;4187;42.778;23.242;2023-07-20T01:35:47;94968.13;;;21.45;100.00
8298;BME280;4187;42.778;23.242;2023-07-20T01:38:16;94951.66;;;21.11;100.00
8298;BME280;4187;42.778;23.242;2023-07-20T01:40:44;94967.16;;;21.02;100.00
8298;BME280;4187;42.778;23.242;2023-07-20T01:43:12;94967.88;;;20.84;100.00
8298;BME280;4187;42.778;23.242;2023-07-20T01:45:39;94964.31;;;20.59;100.00
8298;BME280;4187;42.778;23.242;2023-07-20T01:48:06;94957.13;;;20.53;100.00
8298;BME280;4187;42.778;23.242;2023-07-20T01:50:34;94963.94;;;20.49;100.00
8298;BME280;4187;42.778;23.242;2023-07-20T01:53:01;94957.78;;;20.42;100.00
8298;BME280;4187;42.778;23.242;2023-07-20T01:55:28;94973.03;;;20.48;100.00
8298;BME280;4187;42.778;23.242;2023-07-20T01:57:55;94956.94;;;20.48;100.00
8298;BME280;4187;42.778;23.242;2023-07-20T02:00:22;94959.44;;;20.43;100.00
8298;BME280;4187;42.778;23.242;2023-07-20T02:02:49;94958.00;;;20.41;100.00
8298;BME280;4187;42.778;23.242;2023-07-20T02:05:17;94955.94;;;20.43;100.00
8298;BME280;4187;42.778;23.242;2023-07-20T02:07:45;94924.44;;;20.25;100.00
8298;BME280;4187;42.778;23.242;2023-07-20T02:10:12;94948.78;;;20.30;100.00
8298;BME280;4187;42.778;23.242;2023-07-20T02:12:39;94958.38;;;20.44;100.00
8298;BME280;4187;42.778;23.242;2023-07-20T02:15:06;94924.44;;;20.32;100.00
8298;BME280;4187;42.778;23.242;2023-07-20T02:17:33;94955.44;;;20.59;100.00
8298;BME280;4187;42.778;23.242;2023-07-20T02:20:00;94964.09;;;20.61;100.00
8298;BME280;4187;42.778;23.242;2023-07-20T02:22:27;94960.56;;;20.60;100.00
8298;BME280;4187;42.778;23.242;2023-07-20T02:24:55;94952.78;;;20.52;100.00
8298;BME280;4187;42.778;23.242;2023-07-20T02:27:22;94952.16;;;20.57;100.00
8298;BME280;4187;42.778;23.242;2023-07-20T02:29:49;94944.06;;;20.63;100.00
8298;BME280;4187;42.778;23.242;2023-07-20T02:32:16;94945.13;;;20.62;100.00
8298;BME280;4187;42.778;23.242;2023-07-20T02:34:43;94937.94;;;20.50;100.00
8298;BME280;4187;42.778;23.242;2023-07-20T02:37:10;94941.63;;;20.55;100.00
8298;BME280;4187;42.778;23.242;2023-07-20T02:39:38;94938.53;;;20.58;100.00
8298;BME280;4187;42.778;23.242;2023-07-20T02:42:07;94937.09;;;20.56;100.00
8298;BME280;4187;42.778;23.242;2023-07-20T02:44:34;94931.56;;;20.51;100.00
8298;BME280;4187;42.778;23.242;2023-07-20T02:47:01;94929.06;;;20.49;100.00
8298;BME280;4187;42.778;23.242;2023-07-20T02:49:27;94935.44;;;20.55;100.00
8298;BME280;4187;42.778;23.242;2023-07-20T02:51:54;94931.16;;;20.47;100.00
8298;BME280;4187;42.778;23.242;2023-07-20T02:54:21;94936.94;;;20.44;100.00
8298;BME280;4187;42.778;23.242;2023-07-20T02:56:48;94938.00;;;20.37;100.00
8298;BME280;4187;42.778;23.242;2023-07-20T02:59:16;94943.78;;;20.40;100.00
8298;BME280;4187;42.778;23.242;2023-07-20T03:01:44;94945.44;;;20.35;100.00
8298;BME280;4187;42.778;23.242;2023-07-20T03:04:10;94917.03;;;20.27;100.00
8298;BME280;4187;42.778;23.242;2023-07-20T03:06:37;94934.31;;;20.31;100.00
8298;BME280;4187;42.778;23.242;2023-07-20T03:09:04;94919.63;;;19.89;100.00
8298;BME280;4187;42.778;23.242;2023-07-20T03:11:32;94934.88;;;19.82;100.00
8298;BME280;4187;42.778;23.242;2023-07-20T03:13:59;94935.91;;;19.81;100.00
8298;BME280;4187;42.778;23.242;2023-07-20T03:16:28;94934.47;;;19.72;100.00
8298;BME280;4187;42.778;23.242;2023-07-20T03:18:58;94937.16;;;19.65;100.00
8298;BME280;4187;42.778;23.242;2023-07-20T03:21:25;94940.06;;;19.71;100.00
8298;BME280;4187;42.778;23.242;2023-07-20T03:23:52;94948.47;;;19.74;100.00
8298;BME280;4187;42.778;23.242;2023-07-20T03:26:19;94946.44;;;19.76;100.00
8298;BME280;4187;42.778;23.242;2023-07-20T03:28:46;94940.22;;;19.89;100.00
8298;BME280;4187;42.778;23.242;2023-07-20T03:31:16;94945.13;;;19.98;100.00
8298;BME280;4187;42.778;23.242;2023-07-20T03:33:44;94943.69;;;20.02;100.00
8298;BME280;4187;42.778;23.242;2023-07-20T03:36:11;94964.75;;;20.50;100.00
8298;BME280;4187;42.778;23.242;2023-07-20T03:38:38;94962.66;;;20.58;100.00
8298;BME280;4187;42.778;23.242;2023-07-20T03:41:04;94963.50;;;20.59;100.00
8298;BME280;4187;42.778;23.242;2023-07-20T03:43:31;94959.97;;;20.58;100.00
8298;BME280;4187;42.778;23.242;2023-07-20T03:45:58;94950.31;;;20.51;100.00
8298;BME280;4187;42.778;23.242;2023-07-20T03:48:25;94958.13;;;20.59;100.00
8298;BME280;4187;42.778;23.242;2023-07-20T03:50:53;94956.03;;;20.61;100.00
8298;BME280;4187;42.778;23.242;2023-07-20T03:53:21;94961.00;;;20.57;100.00
8298;BME280;4187;42.778;23.242;2023-07-20T03:55:48;94957.13;;;20.53;100.00
8298;BME280;4187;42.778;23.242;2023-07-20T03:58:17;94952.59;;;20.47;100.00
8298;BME280;4187;42.778;23.242;2023-07-20T04:00:45;94966.59;;;20.56;100.00
8298;BME280;4187;42.778;23.242;2023-07-20T04:03:12;94959.03;;;20.40;100.00
8298;BME280;4187;42.778;23.242;2023-07-20T04:05:39;94954.31;;;20.35;100.00
8298;BME280;4187;42.778;23.242;2023-07-20T04:08:07;94949.97;;;20.34;100.00
8298;BME280;4187;42.778;23.242;2023-07-20T04:10:34;94953.91;;;20.32;100.00
8298;BME280;4187;42.778;23.242;2023-07-20T04:13:01;94945.41;;;20.41;100.00
8298;BME280;4187;42.778;23.242;2023-07-20T04:15:28;94934.19;;;20.57;100.00
8298;BME280;4187;42.778;23.242;2023-07-20T04:17:55;94930.47;;;20.58;100.00
8298;BME280;4187;42.778;23.242;2023-07-20T04:20:22;94942.00;;;20.65;100.00
8298;BME280;4187;42.778;23.242;2023-07-20T04:22:49;94941.09;;;20.78;100.00
8298;BME280;4187;42.778;23.242;2023-07-20T04:25:18;94935.66;;;20.91;100.00
8298;BME280;4187;42.778;23.242;2023-07-20T04:27:45;94934.78;;;21.53;100.00
8298;BME280;4187;42.778;23.242;2023-07-20T04:30:12;94934.97;;;22.19;100.00
8298;BME280;4187;42.778;23.242;2023-07-20T04:32:39;94947.19;;;22.51;100.00
8298;BME280;4187;42.778;23.242;2023-07-20T04:35:17;94949.78;;;22.58;100.00
8298;BME280;4187;42.778;23.242;2023-07-20T04:37:45;94950.34;;;22.48;100.00
8298;BME280;4187;42.778;23.242;2023-07-20T04:40:15;94943.78;;;22.26;100.00
8298;BME280;4187;42.778;23.242;2023-07-20T04:42:44;94878.25;;;21.84;100.00
8298;BME280;4187;42.778;23.242;2023-07-20T04:45:11;94941.84;;;22.15;100.00
8298;BME280;4187;42.778;23.242;2023-07-20T04:47:38;94932.75;;;22.16;100.00
8298;BME280;4187;42.778;23.242;2023-07-20T04:50:06;94943.31;;;22.47;100.00
8298;BME280;4187;42.778;23.242;2023-07-20T04:52:33;94942.59;;;22.88;100.00
8298;BME280;4187;42.778;23.242;2023-07-20T04:54:59;94941.97;;;23.16;100.00
8298;BME280;4187;42.778;23.242;2023-07-20T04:57:26;94950.81;;;23.35;100.00
8298;BME280;4187;42.778;23.242;2023-07-20T04:59:54;94949.91;;;23.52;100.00
8298;BME280;4187;42.778;23.242;2023-07-20T05:02:21;94954.41;;;23.70;100.00
8298;BME280;4187;42.778;23.242;2023-07-20T05:04:48;94929.06;;;23.71;100.00
8298;BME280;4187;42.778;23.242;2023-07-20T05:07:15;94962.00;;;23.96;100.00
8298;BME280;4187;42.778;23.242;2023-07-20T05:09:42;94960.50;;;24.00;100.00
8298;BME280;4187;42.778;23.242;2023-07-20T05:12:09;94961.78;;;24.09;100.00
8298;BME280;4187;42.778;23.242;2023-07-20T05:14:37;94965.88;;;24.23;100.00
8298;BME280;4187;42.778;23.242;2023-07-20T05:17:06;94963.19;;;24.23;100.00
8298;BME280;4187;42.778;23.242;2023-07-20T05:19:33;94964.13;;;24.29;100.00
8298;BME280;4187;42.778;23.242;2023-07-20T05:22:00;94964.22;;;24.34;100.00
8298;BME280;4187;42.778;23.242;2023-07-20T05:24:26;94950.63;;;24.41;100.00
8298;BME280;4187;42.778;23.242;2023-07-20T05:26:53;94972.72;;;24.66;100.00
8298;BME280;4187;42.778;23.242;2023-07-20T05:29:20;94977.25;;;24.77;100.00
8298;BME280;4187;42.778;23.242;2023-07-20T05:31:47;94970.47;;;24.86;100.00
8298;BME280;4187;42.778;23.242;2023-07-20T05:34:15;94994.03;;;24.90;100.00
8298;BME280;4187;42.778;23.242;2023-07-20T05:36:42;94997.75;;;25.01;100.00
8298;BME280;4187;42.778;23.242;2023-07-20T05:39:08;95004.88;;;25.07;100.00
8298;BME280;4187;42.778;23.242;2023-07-20T05:41:35;95001.22;;;25.13;100.00
8298;BME280;4187;42.778;23.242;2023-07-20T05:44:02;94999.34;;;25.14;100.00
8298;BME280;4187;42.778;23.242;2023-07-20T05:46:29;94994.56;;;25.04;100.00
8298;BME280;4187;42.778;23.242;2023-07-20T05:48:56;95000.91;;;24.98;100.00
8298;BME280;4187;42.778;23.242;2023-07-20T05:51:24;94994.13;;;24.95;100.00
8298;BME280;4187;42.778;23.242;2023-07-20T05:53:51;94983.94;;;24.98;100.00
8298;BME280;4187;42.778;23.242;2023-07-20T05:56:17;94990.72;;;25.00;100.00
8298;BME280;4187;42.778;23.242;2023-07-20T05:58:44;94981.88;;;25.05;100.00
8298;BME280;4187;42.778;23.242;2023-07-20T06:01:11;94995.13;;;25.06;100.00
8298;BME280;4187;42.778;23.242;2023-07-20T06:03:38;94985.75;;;25.09;100.00
8298;BME280;4187;42.778;23.242;2023-07-20T06:06:05;94981.97;;;25.10;100.00
8298;BME280;4187;42.778;23.242;2023-07-20T06:08:33;94971.91;;;25.05;100.00
8298;BME280;4187;42.778;23.242;2023-07-20T06:11:00;94984.78;;;25.15;100.00
8298;BME280;4187;42.778;23.242;2023-07-20T06:13:27;94982.06;;;25.15;100.00
8298;BME280;4187;42.778;23.242;2023-07-20T06:15:54;94961.06;;;25.17;100.00
8298;BME280;4187;42.778;23.242;2023-07-20T06:18:22;94978.44;;;25.37;100.00
8298;BME280;4187;42.778;23.242;2023-07-20T06:20:49;94969.94;;;25.45;100.00
8298;BME280;4187;42.778;23.242;2023-07-20T06:23:17;94976.38;;;25.56;100.00
8298;BME280;4187;42.778;23.242;2023-07-20T06:25:45;94952.13;;;25.61;100.00
8298;BME280;4187;42.778;23.242;2023-07-20T06:28:12;94969.25;;;25.83;100.00
8298;BME280;4187;42.778;23.242;2023-07-20T06:30:39;94966.34;;;26.06;100.00
8298;BME280;4187;42.778;23.242;2023-07-20T06:33:06;94937.69;;;26.05;100.00
8298;BME280;4187;42.778;23.242;2023-07-20T06:35:34;94974.31;;;26.30;96.61
8298;BME280;4187;42.778;23.242;2023-07-20T06:38:00;94963.41;;;26.25;99.10
8298;BME280;4187;42.778;23.242;2023-07-20T06:40:29;94981.03;;;26.27;98.74
8298;BME280;4187;42.778;23.242;2023-07-20T06:42:57;94979.59;;;26.20;100.00
8298;BME280;4187;42.778;23.242;2023-07-20T06:45:24;94962.91;;;26.11;100.00
8298;BME280;4187;42.778;23.242;2023-07-20T06:47:51;94976.03;;;26.36;100.00
8298;BME280;4187;42.778;23.242;2023-07-20T06:50:18;94971.69;;;26.56;97.27
8298;BME280;4187;42.778;23.242;2023-07-20T06:52:45;94984.28;;;26.67;98.72
8298;BME280;4187;42.778;23.242;2023-07-20T06:55:13;95001.84;;;26.82;95.99
8298;BME280;4187;42.778;23.242;2023-07-20T06:57:40;95009.63;;;27.00;96.40
8298;BME280;4187;42.778;23.242;2023-07-20T07:00:09;95005.56;;;27.24;94.11
8298;BME280;4187;42.778;23.242;2023-07-20T07:02:36;95005.44;;;27.36;95.11
8298;BME280;4187;42.778;23.242;2023-07-20T07:05:04;95006.88;;;27.43;94.05
8298;BME280;4187;42.778;23.242;2023-07-20T07:07:30;94985.81;;;27.28;93.75
8298;BME280;4187;42.778;23.242;2023-07-20T07:09:58;95022.41;;;27.53;91.81
8298;BME280;4187;42.778;23.242;2023-07-20T07:12:25;95033.59;;;27.56;91.79
8298;BME280;4187;42.778;23.242;2023-07-20T07:14:52;95049.28;;;27.54;93.04
8298;BME280;4187;42.778;23.242;2023-07-20T07:17:20;95025.97;;;27.53;91.99
8298;BME280;4187;42.778;23.242;2023-07-20T07:19:47;95050.66;;;27.83;94.10
8298;BME280;4187;42.778;23.242;2023-07-20T07:22:14;95056.69;;;27.90;92.21
8298;BME280;4187;42.778;23.242;2023-07-20T07:24:41;95050.63;;;28.05;88.52
8298;BME280;4187;42.778;23.242;2023-07-20T07:27:08;95024.81;;;28.03;89.16
8298;BME280;4187;42.778;23.242;2023-07-20T07:29:35;95026.56;;;28.19;91.29
8298;BME280;4187;42.778;23.242;2023-07-20T07:32:02;95035.25;;;28.21;80.25
8298;BME280;4187;42.778;23.242;2023-07-20T07:34:30;95029.09;;;28.30;85.92
8298;BME280;4187;42.778;23.242;2023-07-20T07:36:59;95021.56;;;28.42;86.11
8298;BME280;4187;42.778;23.242;2023-07-20T07:39:26;95039.97;;;28.72;82.34
8298;BME280;4187;42.778;23.242;2023-07-20T07:41:55;95018.53;;;28.71;83.80
8298;BME280;4187;42.778;23.242;2023-07-20T07:44:22;95007.72;;;28.86;79.70
8298;BME280;4187;42.778;23.242;2023-07-20T07:46:49;95019.72;;;28.90;82.96
8298;BME280;4187;42.778;23.242;2023-07-20T07:49:16;95026.47;;;28.87;79.90
8298;BME280;4187;42.778;23.242;2023-07-20T07:51:45;94998.94;;;28.69;79.61
8298;BME280;4187;42.778;23.242;2023-07-20T07:54:13;95019.31;;;28.71;79.95
8298;BME280;4187;42.778;23.242;2023-07-20T07:56:40;95010.56;;;28.59;80.62
8298;BME280;4187;42.778;23.242;2023-07-20T07:59:08;95024.88;;;28.49;83.66
8298;BME280;4187;42.778;23.242;2023-07-20T08:01:35;95029.19;;;28.45;84.53
8298;BME280;4187;42.778;23.242;2023-07-20T08:04:02;95040.59;;;28.42;88.04
8298;BME280;4187;42.778;23.242;2023-07-20T08:06:29;95046.84;;;28.43;85.17
8298;BME280;4187;42.778;23.242;2023-07-20T08:08:58;95051.34;;;28.27;78.58
8298;BME280;4187;42.778;23.242;2023-07-20T08:11:24;95051.19;;;28.12;80.01
8298;BME280;4187;42.778;23.242;2023-07-20T08:13:51;95051.47;;;28.11;79.10
8298;BME280;4187;42.778;23.242;2023-07-20T08:16:18;95052.22;;;28.06;78.80
8298;BME280;4187;42.778;23.242;2023-07-20T08:18:45;95050.53;;;28.00;78.13
8298;BME280;4187;42.778;23.242;2023-07-20T08:21:12;95041.53;;;27.95;78.43
8298;BME280;4187;42.778;23.242;2023-07-20T08:23:38;95038.38;;;28.03;80.08
8298;BME280;4187;42.778;23.242;2023-07-20T08:26:06;95026.75;;;28.07;79.96
8298;BME280;4187;42.778;23.242;2023-07-20T08:28:34;95025.97;;;28.12;79.02
8298;BME280;4187;42.778;23.242;2023-07-20T08:31:01;95037.47;;;28.24;80.67
8298;BME280;4187;42.778;23.242;2023-07-20T08:33:29;95038.06;;;28.36;76.87
8298;BME280;4187;42.778;23.242;2023-07-20T08:35:58;95023.25;;;28.48;77.40
8298;BME280;4187;42.778;23.242;2023-07-20T08:38:26;95026.28;;;28.57;72.83
8298;BME280;4187;42.778;23.242;2023-07-20T08:40:54;95032.09;;;28.71;75.17
8298;BME280;4187;42.778;23.242;2023-07-20T08:43:23;95022.69;;;28.88;75.66
8298;BME280;4187;42.778;23.242;2023-07-20T08:45:51;95006.69;;;28.97;75.17
8298;BME280;4187;42.778;23.242;2023-07-20T08:48:19;95024.22;;;29.21;72.40
8298;BME280;4187;42.778;23.242;2023-07-20T08:50:47;95027.75;;;29.27;71.93
8298;BME280;4187;42.778;23.242;2023-07-20T08:53:16;95022.88;;;29.39;69.09
8298;BME280;4187;42.778;23.242;2023-07-20T08:55:44;95013.66;;;29.45;71.19
8298;BME280;4187;42.778;23.242;2023-07-20T08:58:12;95027.28;;;29.55;69.49
8298;BME280;4187;42.778;23.242;2023-07-20T09:00:41;95022.41;;;29.62;70.64
8298;BME280;4187;42.778;23.242;2023-07-20T09:03:08;95013.72;;;29.70;66.58
8298;BME280;4187;42.778;23.242;2023-07-20T09:05:37;95023.81;;;29.85;66.55
8298;BME280;4187;42.778;23.242;2023-07-20T09:08:04;95024.41;;;29.82;64.65
8298;BME280;4187;42.778;23.242;2023-07-20T09:10:31;95018.41;;;29.95;63.91
8298;BME280;4187;42.778;23.242;2023-07-20T09:12:58;95011.59;;;30.12;65.55
8298;BME280;4187;42.778;23.242;2023-07-20T09:15:25;94999.91;;;30.22;62.32
8298;BME280;4187;42.778;23.242;2023-07-20T09:17:53;95010.78;;;30.32;60.97
8298;BME280;4187;42.778;23.242;2023-07-20T09:20:20;94995.53;;;30.36;59.56
8298;BME280;4187;42.778;23.242;2023-07-20T09:22:47;94941.69;;;29.98;59.89
8298;BME280;4187;42.778;23.242;2023-07-20T09:25:16;94995.00;;;30.39;56.83
8298;BME280;4187;42.778;23.242;2023-07-20T09:27:44;94997.69;;;30.54;57.50
8298;BME280;4187;42.778;23.242;2023-07-20T09:30:13;95000.38;;;30.69;58.13
8298;BME280;4187;42.778;23.242;2023-07-20T09:32:42;95002.78;;;30.86;58.80
8298;BME280;4187;42.778;23.242;2023-07-20T09:35:15;95000.84;;;31.02;58.18
8298;BME280;4187;42.778;23.242;2023-07-20T09:37:54;94996.94;;;31.18;57.69
8298;BME280;4187;42.778;23.242;2023-07-20T09:40:24;94991.50;;;31.18;57.40
8298;BME280;4187;42.778;23.242;2023-07-20T09:42:52;94985.81;;;31.14;60.42
8298;BME280;4187;42.778;23.242;2023-07-20T09:45:29;94968.84;;;31.27;58.69
8298;BME280;4187;42.778;23.242;2023-07-20T09:48:03;94938.69;;;31.09;56.75
8298;BME280;4187;42.778;23.242;2023-07-20T09:50:33;94948.34;;;31.35;58.32
8298;BME280;4187;42.778;23.242;2023-07-20T09:53:01;94956.34;;;31.16;56.46
8298;BME280;4187;42.778;23.242;2023-07-20T09:55:29;94939.25;;;31.06;58.00
8298;BME280;4187;42.778;23.242;2023-07-20T09:57:56;94949.31;;;31.05;54.42
8298;BME280;4187;42.778;23.242;2023-07-20T10:00:23;94954.81;;;30.85;56.15
8298;BME280;4187;42.778;23.242;2023-07-20T10:02:51;94957.03;;;30.78;58.13
8298;BME280;4187;42.778;23.242;2023-07-20T10:05:19;94959.22;;;30.76;55.34
8298;BME280;4187;42.778;23.242;2023-07-20T10:07:50;94951.28;;;30.90;59.50
8298;BME280;4187;42.778;23.242;2023-07-20T10:10:18;94955.63;;;31.01;55.60
8298;BME280;4187;42.778;23.242;2023-07-20T10:12:47;94958.94;;;30.77;57.87
8298;BME280;4187;42.778;23.242;2023-07-20T10:15:19;94954.63;;;30.61;59.34
8298;BME280;4187;42.778;23.242;2023-07-20T10:18:03;94961.44;;;30.64;59.05
8298;BME280;4187;42.778;23.242;2023-07-20T10:20:35;94969.06;;;30.67;57.41
8298;BME280;4187;42.778;23.242;2023-07-20T10:23:04;94944.59;;;30.42;59.16
8298;BME280;4187;42.778;23.242;2023-07-20T10:25:31;94966.09;;;30.53;58.10
8298;BME280;4187;42.778;23.242;2023-07-20T10:28:04;94938.09;;;30.38;55.39
8298;BME280;4187;42.778;23.242;2023-07-20T10:30:31;94950.88;;;30.32;56.03
8298;BME280;4187;42.778;23.242;2023-07-20T10:32:58;94958.25;;;30.01;55.15
8298;BME280;4187;42.778;23.242;2023-07-20T10:35:28;94944.13;;;29.84;57.44
8298;BME280;4187;42.778;23.242;2023-07-20T10:38:00;94932.94;;;29.76;61.81
8298;BME280;4187;42.778;23.242;2023-07-20T10:40:30;94944.94;;;29.95;63.25
8298;BME280;4187;42.778;23.242;2023-07-20T10:43:05;94931.34;;;29.90;59.86
8298;BME280;4187;42.778;23.242;2023-07-20T10:45:49;94903.88;;;29.81;58.42
8298;BME280;4187;42.778;23.242;2023-07-20T10:48:17;94889.13;;;29.77;60.21
8298;BME280;4187;42.778;23.242;2023-07-20T10:50:45;94924.50;;;30.07;56.68
8298;BME280;4187;42.778;23.242;2023-07-20T10:53:17;94924.78;;;29.96;57.26
8298;BME280;4187;42.778;23.242;2023-07-20T10:55:45;94928.59;;;30.00;60.46
8298;BME280;4187;42.778;23.242;2023-07-20T10:58:16;94919.88;;;30.18;59.01
8298;BME280;4187;42.778;23.242;2023-07-20T11:00:58;94922.00;;;30.31;56.01
8298;BME280;4187;42.778;23.242;2023-07-20T11:03:27;94894.53;;;30.33;55.71
8298;BME280;4187;42.778;23.242;2023-07-20T11:05:56;94907.84;;;30.44;54.67
8298;BME280;4187;42.778;23.242;2023-07-20T11:08:38;94892.31;;;30.45;49.00
8298;BME280;4187;42.778;23.242;2023-07-20T11:11:24;94903.19;;;30.60;50.02
8298;BME280;4187;42.778;23.242;2023-07-20T11:13:56;94904.53;;;30.62;49.99
8298;BME280;4187;42.778;23.242;2023-07-20T11:16:41;94890.94;;;30.57;48.79
8298;BME280;4187;42.778;23.242;2023-07-20T11:19:17;94900.69;;;30.63;49.24
8298;BME280;4187;42.778;23.242;2023-07-20T11:21:45;94892.03;;;30.51;52.78
8298;BME280;4187;42.778;23.242;2023-07-20T11:24:13;94881.44;;;30.45;52.08
8298;BME280;4187;42.778;23.242;2023-07-20T11:26:42;94900.78;;;30.43;52.37
8298;BME280;4187;42.778;23.242;2023-07-20T11:29:10;94895.81;;;30.55;50.54
8298;BME280;4187;42.778;23.242;2023-07-20T11:31:37;94885.13;;;30.69;52.99
8298;BME280;4187;42.778;23.242;2023-07-20T11:34:04;94883.97;;;30.95;52.57
8298;BME280;4187;42.778;23.242;2023-07-20T11:36:31;94876.72;;;31.19;53.33
8298;BME280;4187;42.778;23.242;2023-07-20T11:38:58;94871.06;;;31.50;56.51
8298;BME280;4187;42.778;23.242;2023-07-20T11:41:25;94868.91;;;31.80;51.35
8298;BME280;4187;42.778;23.242;2023-07-20T11:43:54;94859.47;;;31.96;48.54
8298;BME280;4187;42.778;23.242;2023-07-20T11:46:21;94857.19;;;32.09;53.14
8298;BME280;4187;42.778;23.242;2023-07-20T11:48:48;94859.47;;;32.25;53.30
8298;BME280;4187;42.778;23.242;2023-07-20T11:51:15;94855.94;;;32.25;48.35
8298;BME280;4187;42.778;23.242;2023-07-20T11:53:43;94862.16;;;32.30;50.55
8298;BME280;4187;42.778;23.242;2023-07-20T11:56:11;94847.50;;;32.45;51.44
8298;BME280;4187;42.778;23.242;2023-07-20T11:58:45;94858.31;;;32.55;50.15
8298;BME280;4187;42.778;23.242;2023-07-20T12:01:13;94835.66;;;32.55;47.51
8298;BME280;4187;42.778;23.242;2023-07-20T12:03:41;94850.38;;;32.77;51.52
8298;BME280;4187;42.778;23.242;2023-07-20T12:06:09;94844.72;;;32.92;50.39
8298;BME280;4187;42.778;23.242;2023-07-20T12:08:38;94828.53;;;32.96;46.45
8298;BME280;4187;42.778;23.242;2023-07-20T12:11:06;94833.91;;;33.25;48.92
8298;BME280;4187;42.778;23.242;2023-07-20T12:13:37;94809.47;;;33.28;45.57
8298;BME280;4187;42.778;23.242;2023-07-20T12:16:12;94839.66;;;33.60;42.84
8298;BME280;4187;42.778;23.242;2023-07-20T12:18:40;94819.19;;;33.53;46.86
8298;BME280;4187;42.778;23.242;2023-07-20T12:21:07;94797.03;;;33.54;41.52
8298;BME280;4187;42.778;23.242;2023-07-20T12:23:38;94836.91;;;33.74;39.28
8298;BME280;4187;42.778;23.242;2023-07-20T12:26:09;94829.16;;;33.81;43.81
8298;BME280;4187;42.778;23.242;2023-07-20T12:28:38;94830.47;;;33.84;42.60
8298;BME280;4187;42.778;23.242;2023-07-20T12:31:06;94821.75;;;33.82;41.38
8298;BME280;4187;42.778;23.242;2023-07-20T12:33:35;94816.78;;;33.84;42.55
8298;BME280;4187;42.778;23.242;2023-07-20T12:36:02;94815.69;;;33.85;41.32
8298;BME280;4187;42.778;23.242;2023-07-20T12:38:29;94823.34;;;33.83;40.54
8298;BME280;4187;42.778;23.242;2023-07-20T12:40:56;94819.16;;;33.90;41.40
8298;BME280;4187;42.778;23.242;2023-07-20T12:43:23;94793.94;;;33.75;41.11
8298;BME280;4187;42.778;23.242;2023-07-20T12:45:51;94814.75;;;33.76;41.41
8298;BME280;4187;42.778;23.242;2023-07-20T12:48:18;94804.72;;;33.71;41.73
8298;BME280;4187;42.778;23.242;2023-07-20T12:50:46;94808.06;;;33.82;44.53
8298;BME280;4187;42.778;23.242;2023-07-20T12:53:14;94811.03;;;33.99;43.92
8298;BME280;4187;42.778;23.242;2023-07-20T12:55:41;94792.66;;;33.99;42.65
8298;BME280;4187;42.778;23.242;2023-07-20T12:58:08;94804.22;;;33.96;44.60
8298;BME280;4187;42.778;23.242;2023-07-20T13:00:35;94788.09;;;33.95;46.00
8298;BME280;4187;42.778;23.242;2023-07-20T13:03:01;94771.31;;;33.69;44.94
8298;BME280;4187;42.778;23.242;2023-07-20T13:05:30;94791.75;;;33.90;45.53
8298;BME280;4187;42.778;23.242;2023-07-20T13:07:59;94795.91;;;34.01;48.09
8298;BME280;4187;42.778;23.242;2023-07-20T13:10:26;94792.56;;;34.04;48.04